Time;durP1;ratioP1;P1;durP2;ratioP2;P2;SDS_P1;SDS_P2;PMS_P1;PMS_P2;Temp;Humidity;BMP_temperature;BMP_pressure;BME280_temperature;BME280_humidity;BME280_pressure;Samples;Min_cycle;Max_cycle;Signal;HPM_P1;HPM_P2
2022/03/23 00:00:22;;;;;;;14.82;9.95;;;;;;;;;;5051339;28;20364;-67
2022/03/23 00:02:48;;;;;;;14.30;9.68;;;;;;;;;;5051544;28;20110;-67
2022/03/23 00:05:17;;;;;;;13.85;9.23;;;;;;;;;;5051698;28;20489;-67
2022/03/23 00:07:44;;;;;;;16.30;9.15;;;;;;;;;;5051490;28;20053;-66
2022/03/23 00:10:11;;;;;;;13.00;9.82;;;;;;;;;;5051147;28;20048;-66
2022/03/23 00:12:42;;;;;;;13.85;9.60;;;;;;;;;;5051567;28;20049;-66
2022/03/23 00:15:09;;;;;;;13.90;9.60;;;;;;;;;;5051409;28;20102;-66
2022/03/23 00:17:37;;;;;;;11.75;8.48;;;;;;;;;;5051356;28;20049;-66
2022/03/23 00:20:04;;;;;;;15.52;9.15;;;;;;;;;;5050493;28;20045;-66
2022/03/23 00:22:30;;;;;;;13.88;9.02;;;;;;;;;;5051067;28;20053;-66
2022/03/23 00:24:57;;;;;;;15.38;9.23;;;;;;;;;;5051168;28;20542;-66
2022/03/23 00:27:24;;;;;;;17.25;9.55;;;;;;;;;;5051391;28;20053;-66
2022/03/23 00:29:51;;;;;;;16.73;9.85;;;;;;;;;;5051245;28;20107;-66
2022/03/23 00:32:17;;;;;;;16.20;9.48;;;;;;;;;;5050406;28;20094;-66
2022/03/23 00:34:44;;;;;;;16.58;10.27;;;;;;;;;;5051157;28;20412;-66
2022/03/23 00:37:11;;;;;;;15.02;9.48;;;;;;;;;;5051043;28;20057;-66
2022/03/23 00:39:37;;;;;;;13.63;9.75;;;;;;;;;;5051130;28;20045;-66
2022/03/23 00:42:04;;;;;;;15.60;9.63;;;;;;;;;;5053887;28;20052;-66
2022/03/23 00:44:31;;;;;;;11.98;9.23;;;;;;;;;;5055082;28;20048;-66
2022/03/23 00:46:58;;;;;;;13.75;9.90;;;;;;;;;;5054667;28;20495;-66
2022/03/23 00:49:24;;;;;;;12.98;9.43;;;;;;;;;;5054807;28;20049;-66
2022/03/23 00:51:53;;;;;;;12.85;8.63;;;;;;;;;;5054754;28;20099;-66
2022/03/23 00:54:21;;;;;;;12.77;9.02;;;;;;;;;;5054980;28;20052;-66
2022/03/23 00:56:50;;;;;;;14.18;9.48;;;;;;;;;;5054070;28;20045;-66
2022/03/23 00:59:22;;;;;;;12.15;8.68;;;;;;;;;;5054755;28;20087;-67
2022/03/23 01:01:49;;;;;;;13.38;9.07;;;;;;;;;;5054329;28;20073;-66
2022/03/23 01:04:16;;;;;;;12.77;8.55;;;;;;;;;;5054387;28;20053;-66
2022/03/23 01:06:42;;;;;;;11.10;9.15;;;;;;;;;;5054443;28;20476;-66
2022/03/23 01:09:09;;;;;;;13.45;9.48;;;;;;;;;;5040214;28;20080;-66
2022/03/23 01:11:37;;;;;;;14.90;9.73;;;;;;;;;;5034257;28;20049;-66
2022/03/23 01:14:04;;;;;;;15.38;9.15;;;;;;;;;;5034366;28;20072;-67
2022/03/23 01:16:31;;;;;;;12.05;8.52;;;;;;;;;;5034199;28;20049;-66
2022/03/23 01:18:58;;;;;;;13.30;9.15;;;;;;;;;;5034101;28;20053;-67
2022/03/23 01:21:25;;;;;;;12.90;9.32;;;;;;;;;;5049112;28;20097;-66
2022/03/23 01:23:52;;;;;;;15.48;8.95;;;;;;;;;;5054214;28;20091;-66
2022/03/23 01:26:18;;;;;;;12.93;9.95;;;;;;;;;;5053862;28;20106;-67
2022/03/23 01:28:45;;;;;;;14.48;8.63;;;;;;;;;;5054068;28;20059;-67
2022/03/23 01:31:12;;;;;;;14.88;9.55;;;;;;;;;;5053978;28;20053;-68
2022/03/23 01:33:39;;;;;;;12.73;8.38;;;;;;;;;;5036033;28;20049;-66
2022/03/23 01:36:06;;;;;;;12.90;8.98;;;;;;;;;;5035395;28;20049;-66
2022/03/23 01:38:32;;;;;;;14.50;9.45;;;;;;;;;;5034455;28;20100;-66
2022/03/23 01:40:59;;;;;;;14.13;8.85;;;;;;;;;;5033759;28;20046;-67
2022/03/23 01:43:25;;;;;;;14.70;9.30;;;;;;;;;;5035606;28;20049;-66
2022/03/23 01:45:53;;;;;;;12.27;8.73;;;;;;;;;;5053822;28;20053;-66
2022/03/23 01:48:19;;;;;;;11.68;8.30;;;;;;;;;;5053807;28;20055;-66
2022/03/23 01:50:46;;;;;;;13.95;8.80;;;;;;;;;;5053533;28;20045;-66
2022/03/23 01:53:13;;;;;;;11.18;8.00;;;;;;;;;;5052988;28;20106;-66
2022/03/23 01:55:39;;;;;;;12.73;8.90;;;;;;;;;;5052710;28;20068;-66
2022/03/23 01:58:06;;;;;;;14.05;9.68;;;;;;;;;;5052183;28;20465;-66
2022/03/23 02:00:34;;;;;;;12.60;8.75;;;;;;;;;;5053222;28;20493;-66
2022/03/23 02:03:01;;;;;;;11.05;7.93;;;;;;;;;;5053118;28;20102;-65
2022/03/23 02:05:28;;;;;;;13.75;9.55;;;;;;;;;;5053387;28;20107;-67
2022/03/23 02:07:55;;;;;;;13.18;9.32;;;;;;;;;;5053344;28;20045;-67
2022/03/23 02:10:22;;;;;;;16.35;9.02;;;;;;;;;;5053258;28;20190;-67
2022/03/23 02:12:48;;;;;;;12.25;9.07;;;;;;;;;;5052984;28;20114;-66
2022/03/23 02:15:17;;;;;;;13.13;9.30;;;;;;;;;;5053481;28;20052;-67
2022/03/23 02:17:45;;;;;;;16.27;9.45;;;;;;;;;;5053314;28;20132;-65
2022/03/23 02:20:12;;;;;;;12.20;9.30;;;;;;;;;;5053011;28;20094;-68
2022/03/23 02:22:39;;;;;;;14.52;9.50;;;;;;;;;;5052868;28;20053;-66
2022/03/23 02:25:07;;;;;;;16.80;9.20;;;;;;;;;;5052850;28;20057;-66
2022/03/23 02:27:38;;;;;;;14.93;9.15;;;;;;;;;;5053033;28;20049;-66
2022/03/23 02:30:08;;;;;;;17.25;9.73;;;;;;;;;;5052943;28;20049;-66
2022/03/23 02:32:35;;;;;;;11.10;9.13;;;;;;;;;;5042475;28;20041;-67
2022/03/23 02:35:03;;;;;;;13.07;9.30;;;;;;;;;;5032687;28;20057;-67
2022/03/23 02:37:30;;;;;;;13.85;9.23;;;;;;;;;;5032805;28;20121;-67
2022/03/23 02:39:56;;;;;;;14.63;9.68;;;;;;;;;;5032691;28;20107;-66
2022/03/23 02:42:23;;;;;;;14.48;9.02;;;;;;;;;;5032323;28;20103;-66
2022/03/23 02:44:49;;;;;;;14.35;9.60;;;;;;;;;;5032626;28;20099;-67
2022/03/23 02:47:16;;;;;;;12.13;8.68;;;;;;;;;;5032674;28;20053;-67
2022/03/23 02:49:43;;;;;;;13.23;9.60;;;;;;;;;;5032437;28;20053;-67
2022/03/23 02:52:09;;;;;;;13.85;9.60;;;;;;;;;;5032359;28;20042;-66
2022/03/23 03:03:21;;;;;;;16.58;10.38;;;;;;;;;;5012814;28;20081;-66
2022/03/23 03:05:48;;;;;;;16.70;9.80;;;;;;;;;;5011764;28;20127;-66
2022/03/23 03:11:00;;;;;;;13.35;9.88;;;;;;;;;;5012278;28;20049;-66
2022/03/23 03:13:29;;;;;;;15.35;10.18;;;;;;;;;;5012474;28;20054;-66
2022/03/23 03:16:05;;;;;;;12.20;9.40;;;;;;;;;;5029653;28;20118;-66
2022/03/23 03:18:33;;;;;;;15.30;9.90;;;;;;;;;;5052178;28;20045;-66
2022/03/23 03:21:03;;;;;;;17.67;10.18;;;;;;;;;;5051595;28;20106;-66
2022/03/23 03:23:30;;;;;;;13.48;9.48;;;;;;;;;;5050695;28;20443;-66
2022/03/23 03:25:57;;;;;;;14.25;10.27;;;;;;;;;;5051749;28;20053;-66
2022/03/23 03:28:23;;;;;;;13.65;9.85;;;;;;;;;;5051907;28;20045;-66
2022/03/23 03:30:50;;;;;;;15.85;9.73;;;;;;;;;;5051488;28;20128;-66
2022/03/23 03:33:17;;;;;;;18.60;10.35;;;;;;;;;;5051555;28;20556;-66
2022/03/23 03:35:44;;;;;;;14.77;9.38;;;;;;;;;;5044199;28;20076;-66
2022/03/23 03:38:10;;;;;;;12.98;8.85;;;;;;;;;;5031829;28;20492;-66
2022/03/23 03:40:37;;;;;;;19.42;10.05;;;;;;;;;;5031376;28;20084;-66
2022/03/23 03:43:04;;;;;;;14.05;9.90;;;;;;;;;;5031575;28;20053;-66
2022/03/23 03:45:30;;;;;;;16.08;9.48;;;;;;;;;;5031870;28;20107;-66
2022/03/23 03:47:58;;;;;;;15.23;10.20;;;;;;;;;;5031580;28;20053;-66
2022/03/23 03:50:25;;;;;;;14.80;10.27;;;;;;;;;;5031693;28;20455;-66
2022/03/23 03:52:51;;;;;;;14.93;10.07;;;;;;;;;;5031356;28;20046;-66
2022/03/23 03:55:18;;;;;;;14.25;9.52;;;;;;;;;;5034824;28;20053;-66
2022/03/23 03:57:45;;;;;;;13.98;9.98;;;;;;;;;;5052179;28;20049;-66
2022/03/23 04:00:12;;;;;;;12.38;9.50;;;;;;;;;;5051428;28;20053;-66
2022/03/23 04:02:39;;;;;;;14.88;8.95;;;;;;;;;;5051364;28;20099;-66
2022/03/23 04:05:06;;;;;;;13.23;9.88;;;;;;;;;;5051484;28;20131;-66
2022/03/23 04:07:33;;;;;;;16.10;9.80;;;;;;;;;;5047246;28;20048;-66
2022/03/23 04:10:01;;;;;;;14.25;9.40;;;;;;;;;;5051571;28;20049;-66
2022/03/23 04:12:28;;;;;;;16.73;9.75;;;;;;;;;;5049993;28;20510;-67
2022/03/23 04:14:55;;;;;;;14.13;9.88;;;;;;;;;;5051478;28;20053;-66
2022/03/23 04:17:21;;;;;;;13.85;9.65;;;;;;;;;;5055048;28;20049;-66
2022/03/23 04:19:48;;;;;;;14.35;10.00;;;;;;;;;;5055358;28;20492;-66
2022/03/23 04:22:14;;;;;;;15.85;10.43;;;;;;;;;;5054979;28;20040;-66
2022/03/23 04:24:41;;;;;;;16.60;9.93;;;;;;;;;;5055510;28;20057;-66
2022/03/23 04:27:08;;;;;;;14.63;10.07;;;;;;;;;;5055171;28;20106;-66
2022/03/23 04:29:34;;;;;;;14.23;9.75;;;;;;;;;;5055360;28;20049;-66
2022/03/23 04:32:01;;;;;;;14.32;9.82;;;;;;;;;;5054942;28;20075;-67
2022/03/23 04:34:27;;;;;;;16.90;10.20;;;;;;;;;;5055026;28;20048;-66
2022/03/23 04:36:54;;;;;;;15.65;10.10;;;;;;;;;;5054960;28;20048;-66
2022/03/23 04:39:21;;;;;;;13.75;9.68;;;;;;;;;;5055044;28;20103;-66
2022/03/23 04:41:47;;;;;;;14.98;10.07;;;;;;;;;;5054994;28;20044;-66
2022/03/23 04:44:14;;;;;;;12.20;9.55;;;;;;;;;;5054863;28;20137;-66
2022/03/23 04:46:41;;;;;;;15.10;9.90;;;;;;;;;;5054695;28;20053;-66
2022/03/23 04:49:08;;;;;;;14.82;10.57;;;;;;;;;;5054577;28;20053;-66
2022/03/23 04:51:36;;;;;;;13.10;10.13;;;;;;;;;;5054558;28;20053;-66
2022/03/23 04:54:03;;;;;;;15.27;10.13;;;;;;;;;;5054732;28;20056;-66
2022/03/23 04:56:29;;;;;;;19.83;10.63;;;;;;;;;;5054733;28;20107;-66
2022/03/23 04:58:56;;;;;;;13.77;9.68;;;;;;;;;;5054571;28;20053;-66
2022/03/23 05:01:23;;;;;;;13.32;10.10;;;;;;;;;;5044053;28;20103;-66
2022/03/23 05:03:50;;;;;;;16.65;10.82;;;;;;;;;;5034379;28;20050;-66
2022/03/23 05:06:16;;;;;;;14.82;10.90;;;;;;;;;;5034417;28;20053;-66
2022/03/23 05:08:43;;;;;;;14.55;10.07;;;;;;;;;;5034498;28;20471;-66
2022/03/23 05:11:12;;;;;;;15.20;10.27;;;;;;;;;;5034174;28;20050;-66
2022/03/23 05:13:38;;;;;;;16.02;10.57;;;;;;;;;;5039400;28;20080;-66
2022/03/23 05:16:07;;;;;;;13.73;10.40;;;;;;;;;;5034814;28;20079;-66
2022/03/23 05:18:34;;;;;;;14.88;10.18;;;;;;;;;;5034117;28;20428;-66
2022/03/23 05:21:00;;;;;;;16.10;9.98;;;;;;;;;;5034057;28;20053;-66
2022/03/23 05:23:27;;;;;;;15.70;10.75;;;;;;;;;;5034219;28;20136;-66
2022/03/23 05:25:54;;;;;;;17.92;10.75;;;;;;;;;;5034237;28;20108;-66
2022/03/23 05:28:24;;;;;;;14.32;10.32;;;;;;;;;;5033248;28;20140;-66
2022/03/23 05:30:52;;;;;;;15.77;10.52;;;;;;;;;;5034023;28;20053;-67
2022/03/23 05:33:18;;;;;;;16.40;11.02;;;;;;;;;;5033785;28;20060;-66
2022/03/23 05:35:45;;;;;;;17.50;11.07;;;;;;;;;;5033966;28;20049;-66
2022/03/23 05:38:12;;;;;;;15.43;10.75;;;;;;;;;;5025010;28;20054;-67
2022/03/23 05:40:40;;;;;;;21.10;12.82;;;;;;;;;;5028485;28;20060;-67
2022/03/23 05:43:07;;;;;;;18.85;12.25;;;;;;;;;;5033570;28;20061;-67
2022/03/23 05:45:35;;;;;;;20.73;12.68;;;;;;;;;;5033015;28;20095;-66
2022/03/23 05:48:02;;;;;;;18.00;12.35;;;;;;;;;;5033556;28;20053;-67
2022/03/23 05:50:29;;;;;;;20.02;13.13;;;;;;;;;;5033830;28;20054;-67
2022/03/23 05:52:55;;;;;;;18.40;12.70;;;;;;;;;;5033656;28;20046;-66
2022/03/23 05:55:22;;;;;;;18.75;11.38;;;;;;;;;;5033366;28;20103;-67
2022/03/23 05:57:49;;;;;;;19.13;11.57;;;;;;;;;;5033743;28;20049;-67
2022/03/23 06:00:15;;;;;;;20.88;12.10;;;;;;;;;;5033424;28;20149;-67
2022/03/23 06:02:46;;;;;;;17.65;11.75;;;;;;;;;;5033312;28;20045;-67
2022/03/23 06:05:13;;;;;;;17.95;12.07;;;;;;;;;;5030520;28;20414;-67
2022/03/23 06:07:40;;;;;;;20.35;13.15;;;;;;;;;;5031443;28;20061;-68
2022/03/23 06:10:10;;;;;;;20.63;11.20;;;;;;;;;;5031721;28;20546;-66
2022/03/23 06:12:36;;;;;;;16.77;11.85;;;;;;;;;;5030984;28;20404;-67
2022/03/23 06:15:05;;;;;;;20.25;11.35;;;;;;;;;;5030798;28;20511;-68
2022/03/23 06:17:32;;;;;;;23.90;11.57;;;;;;;;;;5031295;28;20050;-67
2022/03/23 06:19:58;;;;;;;18.65;11.05;;;;;;;;;;5031391;28;20099;-67
2022/03/23 06:22:25;;;;;;;15.48;10.43;;;;;;;;;;5031326;28;20058;-67
2022/03/23 06:24:52;;;;;;;15.98;10.23;;;;;;;;;;5030950;28;20132;-67
2022/03/23 06:27:19;;;;;;;16.27;10.52;;;;;;;;;;5030601;28;20107;-67
2022/03/23 06:29:46;;;;;;;17.40;11.07;;;;;;;;;;5030918;28;20471;-67
2022/03/23 06:32:13;;;;;;;15.57;10.70;;;;;;;;;;5030977;28;20053;-67
2022/03/23 06:34:39;;;;;;;16.45;10.65;;;;;;;;;;5030715;28;20057;-67
2022/03/23 06:37:06;;;;;;;20.55;11.00;;;;;;;;;;5030756;28;20179;-67
2022/03/23 06:39:32;;;;;;;19.67;11.57;;;;;;;;;;5031275;28;20100;-67
2022/03/23 06:41:59;;;;;;;19.80;11.95;;;;;;;;;;5030113;28;20041;-67
2022/03/23 06:44:26;;;;;;;18.48;12.05;;;;;;;;;;5030539;28;20041;-67
2022/03/23 06:46:52;;;;;;;15.93;10.90;;;;;;;;;;5030731;28;20471;-67
2022/03/23 06:49:19;;;;;;;16.85;11.07;;;;;;;;;;5030428;28;20053;-67
2022/03/23 06:51:46;;;;;;;20.55;11.30;;;;;;;;;;5030424;28;20120;-67
2022/03/23 06:54:12;;;;;;;19.38;11.27;;;;;;;;;;5029727;28;20280;-68
2022/03/23 06:56:39;;;;;;;16.10;12.20;;;;;;;;;;5029825;28;20461;-66
2022/03/23 06:59:06;;;;;;;17.08;11.52;;;;;;;;;;5030448;28;20107;-66
2022/03/23 07:01:33;;;;;;;18.67;11.77;;;;;;;;;;5030266;28;20061;-66
2022/03/23 07:03:59;;;;;;;23.92;12.60;;;;;;;;;;5030187;28;20053;-66
2022/03/23 07:06:26;;;;;;;19.52;12.10;;;;;;;;;;5030809;28;20046;-67
2022/03/23 07:09:32;;;;;;;21.27;12.48;;;;;;;;;;5028079;28;20076;-66
2022/03/23 07:12:03;;;;;;;19.63;13.05;;;;;;;;;;5020231;28;20493;-68
2022/03/23 07:18:05;;;;;;;17.77;12.20;;;;;;;;;;5014132;28;20049;-68
2022/03/23 07:20:32;;;;;;;20.92;13.70;;;;;;;;;;5029204;28;20049;-67
2022/03/23 07:22:59;;;;;;;25.45;15.55;;;;;;;;;;5029702;28;20050;-69
2022/03/23 07:25:25;;;;;;;25.83;14.48;;;;;;;;;;5029974;28;20049;-69
2022/03/23 07:27:52;;;;;;;19.63;13.57;;;;;;;;;;5029649;28;20562;-69
2022/03/23 07:30:20;;;;;;;22.95;13.50;;;;;;;;;;5029725;28;20183;-68
2022/03/23 07:32:46;;;;;;;23.48;14.45;;;;;;;;;;5029025;28;20049;-68
2022/03/23 07:35:13;;;;;;;26.77;14.43;;;;;;;;;;5048658;28;20053;-68
2022/03/23 07:37:40;;;;;;;23.42;13.45;;;;;;;;;;5049561;28;20406;-67
2022/03/23 07:40:07;;;;;;;25.67;14.13;;;;;;;;;;5046004;28;20459;-67
2022/03/23 07:42:34;;;;;;;18.10;12.52;;;;;;;;;;5036356;28;20554;-68
2022/03/23 07:45:00;;;;;;;25.42;14.07;;;;;;;;;;5029408;28;20049;-67
2022/03/23 07:47:27;;;;;;;22.20;14.02;;;;;;;;;;5029936;28;20115;-68
2022/03/23 07:49:53;;;;;;;20.77;14.25;;;;;;;;;;5029172;28;20115;-68
2022/03/23 07:52:20;;;;;;;38.30;15.25;;;;;;;;;;5028824;28;20041;-68
2022/03/23 07:54:47;;;;;;;26.55;16.30;;;;;;;;;;5029455;28;20056;-68
2022/03/23 07:57:14;;;;;;;22.70;16.02;;;;;;;;;;5028237;28;20052;-68
2022/03/23 07:59:41;;;;;;;21.30;15.07;;;;;;;;;;5029470;28;20172;-68
2022/03/23 08:02:08;;;;;;;23.67;15.70;;;;;;;;;;5028883;28;20046;-68
2022/03/23 08:04:39;;;;;;;30.77;17.13;;;;;;;;;;5029085;28;20089;-67
2022/03/23 08:07:07;;;;;;;26.73;16.50;;;;;;;;;;5028961;28;20115;-68
2022/03/23 08:09:33;;;;;;;24.75;15.32;;;;;;;;;;5027145;28;20049;-68
2022/03/23 08:12:00;;;;;;;26.67;16.42;;;;;;;;;;5028930;28;20149;-67
2022/03/23 08:14:27;;;;;;;22.08;15.38;;;;;;;;;;5028966;28;20111;-67
2022/03/23 08:16:54;;;;;;;29.30;16.35;;;;;;;;;;5029939;28;20060;-67
2022/03/23 08:19:22;;;;;;;27.02;15.55;;;;;;;;;;5031176;28;20485;-68
2022/03/23 08:21:52;;;;;;;30.38;16.13;;;;;;;;;;5031273;28;20107;-67
2022/03/23 08:24:18;;;;;;;24.60;16.48;;;;;;;;;;5050835;28;20045;-68
2022/03/23 08:26:46;;;;;;;23.85;16.23;;;;;;;;;;5049955;28;20580;-67
2022/03/23 08:29:12;;;;;;;28.20;15.25;;;;;;;;;;5050675;28;20110;-67
2022/03/23 08:31:39;;;;;;;26.73;16.02;;;;;;;;;;5050811;28;20051;-67
2022/03/23 08:34:06;;;;;;;28.42;17.85;;;;;;;;;;5047990;28;20048;-67
2022/03/23 08:36:33;;;;;;;23.60;15.93;;;;;;;;;;5050622;28;20389;-67
2022/03/23 08:39:00;;;;;;;27.00;15.43;;;;;;;;;;5051370;28;20136;-68
2022/03/23 08:41:31;;;;;;;23.95;15.18;;;;;;;;;;5051200;28;20055;-67
2022/03/23 08:43:57;;;;;;;25.63;16.83;;;;;;;;;;5050906;28;20484;-67
2022/03/23 08:46:25;;;;;;;24.48;16.38;;;;;;;;;;5051045;28;20113;-67
2022/03/23 08:48:52;;;;;;;22.45;15.38;;;;;;;;;;5051209;28;20052;-68
2022/03/23 08:51:19;;;;;;;24.52;16.45;;;;;;;;;;5051274;28;20114;-67
2022/03/23 08:53:46;;;;;;;27.52;17.08;;;;;;;;;;5051274;28;20162;-67
2022/03/23 08:56:12;;;;;;;22.35;15.48;;;;;;;;;;5050843;28;20110;-67
2022/03/23 08:58:47;;;;;;;26.83;17.17;;;;;;;;;;5052723;28;20075;-67
2022/03/23 09:01:17;;;;;;;29.02;15.48;;;;;;;;;;5051642;28;20496;-68
2022/03/23 09:03:45;;;;;;;26.30;17.02;;;;;;;;;;5053305;28;20420;-68
2022/03/23 09:06:11;;;;;;;24.15;16.63;;;;;;;;;;5054760;28;20088;-67
2022/03/23 09:08:38;;;;;;;24.80;16.95;;;;;;;;;;5054841;28;20053;-67
2022/03/23 09:11:05;;;;;;;22.77;15.73;;;;;;;;;;5054310;28;20057;-67
2022/03/23 09:13:32;;;;;;;23.77;16.10;;;;;;;;;;5054399;28;20045;-67
2022/03/23 09:15:59;;;;;;;25.65;16.33;;;;;;;;;;5054204;28;20049;-65
2022/03/23 09:18:28;;;;;;;26.08;16.17;;;;;;;;;;5054503;28;20049;-65
2022/03/23 09:20:56;;;;;;;22.05;15.68;;;;;;;;;;5054202;28;20075;-66
2022/03/23 09:23:27;;;;;;;24.83;16.80;;;;;;;;;;5054190;28;20064;-65
2022/03/23 09:25:54;;;;;;;26.17;17.05;;;;;;;;;;5054101;28;20131;-65
2022/03/23 09:28:21;;;;;;;27.25;16.45;;;;;;;;;;5054136;28;20400;-67
2022/03/23 09:30:48;;;;;;;25.65;16.52;;;;;;;;;;5054129;28;20130;-67
2022/03/23 09:33:15;;;;;;;25.48;16.70;;;;;;;;;;5053257;28;20132;-65
2022/03/23 09:35:42;;;;;;;28.35;17.98;;;;;;;;;;5054042;28;20387;-65
2022/03/23 09:38:08;;;;;;;25.80;16.73;;;;;;;;;;5054079;28;20045;-66
2022/03/23 09:40:35;;;;;;;23.73;16.50;;;;;;;;;;5053752;28;20408;-66
2022/03/23 09:43:04;;;;;;;25.40;17.13;;;;;;;;;;5053444;28;20098;-66
2022/03/23 09:48:05;;;;;;;23.90;16.27;;;;;;;;;;5054137;28;20051;-66
2022/03/23 09:50:33;;;;;;;25.92;17.52;;;;;;;;;;5053708;28;20053;-66
2022/03/23 09:53:00;;;;;;;26.58;16.92;;;;;;;;;;5053558;28;20095;-66
2022/03/23 09:55:26;;;;;;;24.83;16.98;;;;;;;;;;5053236;28;20428;-66
2022/03/23 09:57:55;;;;;;;22.45;14.90;;;;;;;;;;5054307;28;20111;-66
2022/03/23 10:00:22;;;;;;;24.13;16.83;;;;;;;;;;5053478;28;20083;-66
2022/03/23 10:02:57;;;;;;;27.60;15.65;;;;;;;;;;5053276;28;20055;-66
2022/03/23 10:05:27;;;;;;;20.90;15.82;;;;;;;;;;5053346;28;20130;-66
2022/03/23 10:08:29;;;;;;;20.85;15.45;;;;;;;;;;5053303;28;20118;-66
2022/03/23 10:11:34;;;;;;;21.58;13.55;;;;;;;;;;5052944;28;20499;-66
2022/03/23 10:14:37;;;;;;;21.98;13.93;;;;;;;;;;5052778;28;20484;-66
2022/03/23 10:17:42;;;;;;;18.38;14.15;;;;;;;;;;5053426;28;20110;-66
2022/03/23 10:20:11;;;;;;;23.65;15.70;;;;;;;;;;5053245;28;20107;-66
2022/03/23 10:23:04;;;;;;;26.60;15.23;;;;;;;;;;5052627;28;20103;-66
2022/03/23 10:25:31;;;;;;;21.77;14.82;;;;;;;;;;5050190;28;20045;-66
2022/03/23 10:27:58;;;;;;;18.70;13.82;;;;;;;;;;5053519;28;20559;-67
2022/03/23 10:30:37;;;;;;;24.05;15.63;;;;;;;;;;5053361;28;20449;-66
2022/03/23 10:33:19;;;;;;;19.13;13.20;;;;;;;;;;5053021;28;20110;-66
2022/03/23 10:35:46;;;;;;;19.60;13.85;;;;;;;;;;5052181;28;20108;-66
2022/03/23 10:38:15;;;;;;;23.17;15.18;;;;;;;;;;5053647;28;20056;-66
2022/03/23 10:40:43;;;;;;;18.20;13.25;;;;;;;;;;5053081;28;20405;-66
2022/03/23 10:43:11;;;;;;;16.95;13.50;;;;;;;;;;5053207;28;20550;-66
2022/03/23 10:45:38;;;;;;;19.73;13.50;;;;;;;;;;5053175;28;20049;-66
2022/03/23 10:48:22;;;;;;;19.33;12.57;;;;;;;;;;5053574;28;20056;-66
2022/03/23 10:50:53;;;;;;;17.58;12.43;;;;;;;;;;5052870;28;20056;-66
2022/03/23 10:53:39;;;;;;;23.30;13.30;;;;;;;;;;5053222;28;20048;-66
2022/03/23 10:56:06;;;;;;;18.95;13.30;;;;;;;;;;5052983;28;20102;-66
2022/03/23 10:58:38;;;;;;;14.73;12.32;;;;;;;;;;5055767;28;20563;-66
2022/03/23 11:01:06;;;;;;;17.25;13.18;;;;;;;;;;5052314;28;20053;-66
2022/03/23 11:03:41;;;;;;;14.48;11.73;;;;;;;;;;5052366;28;20080;-66
2022/03/23 11:06:12;;;;;;;13.50;11.60;;;;;;;;;;5052454;28;20107;-66
2022/03/23 11:08:39;;;;;;;17.17;12.93;;;;;;;;;;5051304;28;20045;-66
2022/03/23 11:16:46;;;;;;;16.25;11.40;;;;;;;;;;5051965;28;20060;-66
2022/03/23 11:19:19;;;;;;;15.80;11.40;;;;;;;;;;5052122;28;20107;-66
2022/03/23 11:22:02;;;;;;;31.38;18.20;;;;;;;;;;5052198;28;20048;-66
2022/03/23 11:24:36;;;;;;;14.85;11.48;;;;;;;;;;5052024;28;20048;-66
2022/03/23 11:27:08;;;;;;;15.05;10.18;;;;;;;;;;5051186;28;20136;-67
2022/03/23 11:29:37;;;;;;;15.05;12.25;;;;;;;;;;5052138;28;20053;-66
2022/03/23 11:32:07;;;;;;;16.10;12.13;;;;;;;;;;5051569;28;20499;-67
2022/03/23 11:34:36;;;;;;;16.35;11.35;;;;;;;;;;5051760;28;20053;-67
2022/03/23 11:37:04;;;;;;;12.57;10.75;;;;;;;;;;5051707;28;20423;-66
2022/03/23 11:39:31;;;;;;;10.85;9.50;;;;;;;;;;5051744;28;20045;-66
2022/03/23 11:42:03;;;;;;;11.85;9.95;;;;;;;;;;5051612;28;20048;-66
2022/03/23 11:44:30;;;;;;;12.02;9.20;;;;;;;;;;5051685;28;20041;-66
2022/03/23 11:47:00;;;;;;;12.40;9.02;;;;;;;;;;5051775;28;20474;-66
2022/03/23 11:49:30;;;;;;;13.25;9.55;;;;;;;;;;5034214;28;20045;-66
2022/03/23 11:52:10;;;;;;;12.20;9.00;;;;;;;;;;5050266;28;20103;-67
2022/03/23 11:57:55;;;;;;;10.98;9.02;;;;;;;;;;5051489;28;20052;-66
2022/03/23 12:00:24;;;;;;;10.23;9.13;;;;;;;;;;5051444;28;20558;-66
2022/03/23 12:02:53;;;;;;;10.02;9.02;;;;;;;;;;5051367;28;20507;-67
2022/03/23 12:05:29;;;;;;;10.65;9.63;;;;;;;;;;5050372;28;20122;-66
2022/03/23 12:08:02;;;;;;;10.05;8.77;;;;;;;;;;5051523;28;20084;-66
2022/03/23 12:10:31;;;;;;;10.27;9.15;;;;;;;;;;5050483;28;20083;-67
2022/03/23 12:13:18;;;;;;;10.73;8.93;;;;;;;;;;5050964;28;20049;-67
2022/03/23 12:15:58;;;;;;;11.68;9.60;;;;;;;;;;5050521;28;20056;-67
2022/03/23 12:18:40;;;;;;;13.43;9.38;;;;;;;;;;5051667;28;20053;-67
2022/03/23 12:21:10;;;;;;;10.40;9.30;;;;;;;;;;5051572;28;20477;-67
2022/03/23 12:23:50;;;;;;;11.68;9.57;;;;;;;;;;5050062;28;20053;-67
2022/03/23 12:26:29;;;;;;;12.15;10.07;;;;;;;;;;5034141;28;20049;-67
2022/03/23 12:29:00;;;;;;;12.82;9.43;;;;;;;;;;5051289;28;20110;-67
2022/03/23 12:31:37;;;;;;;12.00;10.65;;;;;;;;;;5051370;28;20451;-67
2022/03/23 12:34:11;;;;;;;11.77;10.20;;;;;;;;;;5050791;28;20049;-67
2022/03/23 12:36:57;;;;;;;12.05;9.98;;;;;;;;;;5051902;28;20052;-67
2022/03/23 12:39:36;;;;;;;12.73;11.43;;;;;;;;;;5055260;28;20056;-67
2022/03/23 12:42:11;;;;;;;12.65;10.07;;;;;;;;;;5054901;28;20114;-67
2022/03/23 12:44:39;;;;;;;15.27;11.40;;;;;;;;;;5055061;28;20053;-67
2022/03/23 12:47:26;;;;;;;11.75;9.88;;;;;;;;;;5054890;28;20056;-67
2022/03/23 12:58:24;;;;;;;11.48;10.27;;;;;;;;;;5055022;28;20126;-67
2022/03/23 13:00:53;;;;;;;12.18;10.95;;;;;;;;;;5054354;28;20083;-67
2022/03/23 13:03:19;;;;;;;16.38;11.35;;;;;;;;;;5054478;28;20095;-67
2022/03/23 13:05:57;;;;;;;11.27;10.07;;;;;;;;;;5054462;28;20049;-67
2022/03/23 13:08:30;;;;;;;15.60;11.45;;;;;;;;;;5054485;28;20136;-67
2022/03/23 13:10:58;;;;;;;11.45;9.52;;;;;;;;;;5054184;28;20504;-67
2022/03/23 13:13:26;;;;;;;11.93;10.82;;;;;;;;;;5054224;28;20049;-67
2022/03/23 13:15:53;;;;;;;12.18;10.73;;;;;;;;;;5054186;28;20049;-67
2022/03/23 13:18:27;;;;;;;11.68;9.85;;;;;;;;;;5054363;28;20106;-67
2022/03/23 13:20:56;;;;;;;12.23;10.02;;;;;;;;;;5054446;28;20186;-67
2022/03/23 13:23:26;;;;;;;11.40;9.70;;;;;;;;;;5054189;28;20507;-67
2022/03/23 13:26:07;;;;;;;13.55;10.43;;;;;;;;;;5054126;28;20522;-67
2022/03/23 13:28:42;;;;;;;11.20;9.18;;;;;;;;;;5054288;28;20049;-67
2022/03/23 13:31:09;;;;;;;12.45;9.95;;;;;;;;;;5053976;28;20392;-68
2022/03/23 13:33:36;;;;;;;10.80;9.82;;;;;;;;;;5053450;28;20079;-67
2022/03/23 13:36:04;;;;;;;12.18;9.23;;;;;;;;;;5053989;28;20119;-67
2022/03/23 13:38:35;;;;;;;24.90;11.63;;;;;;;;;;5053828;28;20053;-67
2022/03/23 13:43:51;;;;;;;11.23;9.50;;;;;;;;;;5054056;28;20045;-67
2022/03/23 13:46:18;;;;;;;11.60;10.38;;;;;;;;;;5053738;28;20053;-67
2022/03/23 13:48:53;;;;;;;13.38;9.93;;;;;;;;;;5052745;28;20427;-67
2022/03/23 13:51:20;;;;;;;11.43;10.27;;;;;;;;;;5053531;28;20492;-67
2022/03/23 13:53:48;;;;;;;11.80;9.98;;;;;;;;;;5053461;28;20045;-67
2022/03/23 13:56:17;;;;;;;12.68;9.95;;;;;;;;;;5053426;28;20110;-67
2022/03/23 13:58:44;;;;;;;12.40;9.90;;;;;;;;;;5053671;28;20094;-67
2022/03/23 14:01:11;;;;;;;9.90;8.95;;;;;;;;;;5053258;28;20053;-67
2022/03/23 14:03:39;;;;;;;11.80;9.35;;;;;;;;;;5053192;28;20135;-68
2022/03/23 14:06:15;;;;;;;12.32;9.35;;;;;;;;;;5053170;28;20049;-67
2022/03/23 14:08:54;;;;;;;10.07;9.23;;;;;;;;;;5053516;28;20049;-67
2022/03/23 14:11:47;;;;;;;10.80;9.60;;;;;;;;;;5053214;28;20075;-67
2022/03/23 14:14:27;;;;;;;10.90;9.80;;;;;;;;;;5053134;28;20412;-67
2022/03/23 14:17:13;;;;;;;11.63;9.73;;;;;;;;;;5053092;28;20557;-67
2022/03/23 14:19:41;;;;;;;12.65;10.35;;;;;;;;;;5053198;28;20049;-67
2022/03/23 14:22:16;;;;;;;11.15;9.38;;;;;;;;;;5052848;28;20049;-67
2022/03/23 14:24:43;;;;;;;10.65;9.27;;;;;;;;;;5052873;28;20064;-67
2022/03/23 14:27:16;;;;;;;11.02;9.77;;;;;;;;;;5052993;28;20557;-67
2022/03/23 14:30:04;;;;;;;13.52;8.82;;;;;;;;;;5053000;28;20471;-67
2022/03/23 14:32:42;;;;;;;11.13;9.27;;;;;;;;;;5052625;28;20510;-67
2022/03/23 14:35:11;;;;;;;10.07;9.13;;;;;;;;;;5052063;28;20080;-67
2022/03/23 14:37:39;;;;;;;10.95;9.38;;;;;;;;;;5052736;28;20466;-67
2022/03/23 14:40:30;;;;;;;9.55;8.65;;;;;;;;;;5052698;28;20122;-67
2022/03/23 14:42:59;;;;;;;10.35;9.23;;;;;;;;;;5052670;28;20103;-67
2022/03/23 14:45:41;;;;;;;11.77;9.43;;;;;;;;;;5052757;28;20048;-67
2022/03/23 14:48:19;;;;;;;9.65;7.90;;;;;;;;;;5052760;28;20053;-67
2022/03/23 14:54:26;;;;;;;9.68;8.50;;;;;;;;;;5052743;28;20498;-67
2022/03/23 14:56:53;;;;;;;11.00;8.70;;;;;;;;;;5052649;28;20045;-67
2022/03/23 14:59:21;;;;;;;9.60;8.13;;;;;;;;;;5052464;28;20049;-67
2022/03/23 15:01:56;;;;;;;9.45;8.40;;;;;;;;;;5052405;28;20053;-67
2022/03/23 15:13:34;;;;;;;8.60;7.72;;;;;;;;;;5052068;28;20052;-67
2022/03/23 15:16:01;;;;;;;9.95;7.90;;;;;;;;;;5052019;28;20095;-67
2022/03/23 15:18:45;;;;;;;11.05;8.55;;;;;;;;;;5052033;28;20621;-67
2022/03/23 15:21:12;;;;;;;11.70;8.60;;;;;;;;;;5052145;28;20057;-67
2022/03/23 15:23:39;;;;;;;10.07;8.45;;;;;;;;;;5050676;28;20072;-67
2022/03/23 15:26:06;;;;;;;11.85;8.40;;;;;;;;;;5051967;28;20115;-67